METAR AND TAF INFORMATION
METAR FOR DAAG
ADDS - METARS form results

(2219 UTC 12 September 2022)
Data provider http://aviationweather.gov/metar/data/
 
METAR text: DAAG 122200Z 00000KT CAVOK 28/18 Q1009
Conditions at: DAAG (DAR-EL-BEIDA/HOU, DZ) observed 2200 UTC 12 September 2022
Temperature: 28.0°C (82°F)
Dewpoint: 18.0°C (64°F) [RH = 55%]
Pressure (altimeter): 29.79 inches Hg (1009.0 mb)
Winds: calm
Visibility: 6 or more miles (10+ km)
Ceiling: ceiling and visibility are OK
Clouds: unknown
Weather: no significant weather observed at this time

METAR text: DAAG 122130Z 36002KT CAVOK 28/19 Q1009
Conditions at: DAAG (DAR-EL-BEIDA/HOU, DZ) observed 2130 UTC 12 September 2022
Temperature: 28.0°C (82°F)
Dewpoint: 19.0°C (66°F) [RH = 58%]
Pressure (altimeter): 29.79 inches Hg (1009.0 mb)
Winds: from the N (360 degrees) at 2 MPH (2 knots; 1.0 m/s)
Visibility: 6 or more miles (10+ km)
Ceiling: ceiling and visibility are OK
Clouds: unknown
Weather: no significant weather observed at this time

Forecast for: DAAG (DAR-EL-BEIDA/HOU, DZ)
Text: TAF DAAG 121700Z 1218/1318 04008KT 9999 FEW030 SCT200
Forecast period: 1800 UTC 12 September 2022 to 1000 UTC 13 September 2022
Forecast type: FROM: standard forecast or significant change
Winds: from the NE (40 degrees) at 9 MPH (8 knots; 4.1 m/s)
Visibility: 6 or more miles (10+ km)
Ceiling: at least 12,000 feet AGL
Clouds: few clouds at 3000 feet AGL
scattered clouds at 20000 feet AGL
Weather: no significant weather forecast for this period
Text: BECMG 1310/1312 36010KT
Forecast period: 1000 to 1800 UTC 13 September 2022
Forecast type: BECOMING: Conditions expected to become as follows by 1200 UTC 13 September 2022
Winds: from the N (360 degrees) at 12 MPH (10 knots; 5.1 m/s)
Visibility: 6 or more miles (10+ km)
Ceiling: at least 12,000 feet AGL
Clouds: few clouds at 3000 feet AGL
scattered clouds at 20000 feet AGL
Weather: no significant weather forecast for this period

 AIRPORT MAP

 RUNWAY INFORMATION
Runway 05 Runway length 11483 ft Runway width 197 ft
Runway elevation 72 ft Runway displaced threshold 0 ft Runway heading 53
Runway 23 Runway length 11483 ft Runway width 197 ft
Runway elevation 82 ft Runway displaced threshold 0 ft Runway heading 233
Runway 09 Runway length 11483 ft Runway width 148 ft
Runway elevation 56 ft Runway displaced threshold 0 ft Runway heading 92
Runway 27 Runway length 11483 ft Runway width 148 ft
Runway elevation 82 ft Runway displaced threshold 0 ft Runway heading 272

 AIRPORT FREQUENCIES
Type APP Name ALGER APP Frequency 121.4 MHZ
Type GND Name ALGER GND Frequency 121.8 MHZ
Type TWR Name ALGER TWR Frequency 118.7 MHZ

 AIRPORT NEAR NAVIGATION AIDS
Type VOR-DME Name Alger Frequency 112500 KHZ
Type NDB Name Houari Boumediene Frequency 416 KHZ
Type VOR Name Alger Frequency 113900 KHZ
Type NDB Name Houari Boumediene Frequency 370 KHZ